Time;durP1;ratioP1;P1;durP2;ratioP2;P2;SDS_P1;SDS_P2;PMS_P1;PMS_P2;Temp;Humidity;BMP_temperature;BMP_pressure;BME280_temperature;BME280_humidity;BME280_pressure;Samples;Min_cycle;Max_cycle;Signal;HPM_P1;HPM_P2
2023/02/17 00:02:01;;;;;;;78.25;34.75;;;;;;;4.48;59.42;100656.56;5216973;27;20435;-91
2023/02/17 00:04:28;;;;;;;76.03;34.65;;;;;;;4.34;59.41;100665.94;5216834;27;20125;-89
2023/02/17 00:06:54;;;;;;;85.50;37.05;;;;;;;4.39;59.42;100665.97;5216977;27;20077;-89
2023/02/17 00:09:19;;;;;;;83.90;36.17;;;;;;;4.42;59.43;100661.69;5217642;27;20054;-90
2023/02/17 00:11:45;;;;;;;84.70;38.00;;;;;;;4.33;59.42;100669.38;5216515;27;20077;-90
2023/02/17 00:14:11;;;;;;;83.50;36.20;;;;;;;4.24;59.42;100667.56;5216959;27;20136;-90
2023/02/17 00:16:36;;;;;;;84.35;36.50;;;;;;;4.20;59.42;100664.94;5216829;27;20058;-90
2023/02/17 00:19:22;;;;;;;80.22;35.50;;;;;;;4.20;59.40;100664.94;5199412;27;20351;-90
2023/02/17 00:21:50;;;;;;;92.10;39.58;;;;;;;4.30;59.42;100664.19;5220200;27;20146;-90
2023/02/17 00:24:16;;;;;;;85.68;36.50;;;;;;;4.17;59.41;100662.34;5199805;27;20089;-91
2023/02/17 00:26:41;;;;;;;81.95;35.35;;;;;;;4.17;59.41;100665.78;5199455;27;20097;-90
2023/02/17 00:29:07;;;;;;;80.47;36.10;;;;;;;4.12;59.40;100664.91;5217061;27;20101;-91
2023/02/17 00:31:32;;;;;;;81.55;36.08;;;;;;;4.21;59.41;100656.38;5216847;27;20101;-90
2023/02/17 00:33:58;;;;;;;77.70;34.10;;;;;;;4.17;59.41;100657.19;5216516;27;20062;-90
2023/02/17 00:36:24;;;;;;;85.10;35.92;;;;;;;4.21;59.41;100658.94;5216696;27;20161;-91
2023/02/17 00:38:49;;;;;;;81.12;36.00;;;;;;;4.17;59.41;100660.63;5216900;27;20101;-91
2023/02/17 00:41:15;;;;;;;77.28;33.30;;;;;;;4.29;59.42;100654.72;5216577;27;20084;-91
2023/02/17 00:43:41;;;;;;;79.05;35.42;;;;;;;4.22;59.41;100658.09;5216848;27;20061;-90
2023/02/17 00:46:06;;;;;;;78.72;32.40;;;;;;;4.14;59.41;100654.59;5216603;27;20071;-90
2023/02/17 00:48:32;;;;;;;73.60;32.03;;;;;;;4.33;59.41;100661.63;5216468;27;20064;-90
2023/02/17 00:50:57;;;;;;;86.40;35.80;;;;;;;4.35;59.42;100662.50;5216614;27;20096;-91
2023/02/17 00:53:23;;;;;;;75.55;31.85;;;;;;;4.57;59.42;100666.09;5216761;27;20072;-89
2023/02/17 00:55:49;;;;;;;77.40;34.97;;;;;;;4.36;59.43;100658.22;5198599;27;20097;-91
2023/02/17 00:58:14;;;;;;;78.43;31.83;;;;;;;4.47;59.42;100660.00;5216999;27;20129;-91
2023/02/17 01:00:40;;;;;;;78.03;34.00;;;;;;;4.53;59.43;100657.50;5198971;27;20082;-91
2023/02/17 01:03:05;;;;;;;75.75;32.63;;;;;;;4.58;59.44;100654.94;5215564;27;20104;-90
2023/02/17 01:05:30;;;;;;;79.45;33.85;;;;;;;4.43;59.43;100655.69;5213050;27;20067;-91
2023/02/17 01:07:56;;;;;;;76.20;33.38;;;;;;;4.44;59.43;100649.69;5187868;27;20090;-92
2023/02/17 01:10:21;;;;;;;68.93;32.40;;;;;;;4.44;59.42;100652.25;5217194;27;20146;-92
2023/02/17 01:12:47;;;;;;;72.95;31.87;;;;;;;4.73;59.45;100646.41;5217084;27;20057;-91
2023/02/17 01:15:12;;;;;;;78.50;33.60;;;;;;;4.59;59.44;100647.22;5216894;27;20124;-92
2023/02/17 01:17:38;;;;;;;79.53;33.10;;;;;;;4.44;59.42;100644.53;5216827;27;20376;-91
2023/02/17 01:20:04;;;;;;;66.40;31.12;;;;;;;4.42;59.43;100643.66;5217220;27;20080;-92
2023/02/17 01:22:29;;;;;;;75.70;33.17;;;;;;;4.49;59.42;100637.66;5217124;27;20065;-91
2023/02/17 01:24:55;;;;;;;75.72;35.33;;;;;;;4.63;59.43;100641.22;5222857;27;20437;-91
2023/02/17 01:27:20;;;;;;;70.57;32.17;;;;;;;4.61;59.43;100637.78;5199971;27;20136;-91
2023/02/17 01:29:45;;;;;;;73.47;32.67;;;;;;;4.65;59.44;100637.78;5198812;27;20080;-91
2023/02/17 01:32:11;;;;;;;74.20;32.83;;;;;;;4.57;59.44;100635.16;5198483;27;20074;-91
2023/02/17 01:34:37;;;;;;;74.20;33.17;;;;;;;4.40;59.42;100632.47;5199303;27;20085;-90
2023/02/17 01:37:02;;;;;;;74.00;32.10;;;;;;;4.62;59.44;100629.19;5199403;27;20141;-90
2023/02/17 01:39:27;;;;;;;67.30;30.48;;;;;;;4.53;59.43;100623.13;5199644;27;20066;-91
2023/02/17 01:41:53;;;;;;;66.75;30.83;;;;;;;4.57;59.43;100617.97;5199389;27;20100;-91
2023/02/17 01:44:20;;;;;;;67.70;31.12;;;;;;;4.46;59.43;100627.34;5199203;27;20069;-90
2023/02/17 01:46:47;;;;;;;66.78;32.72;;;;;;;4.46;59.43;100627.34;5217388;27;20374;-90
2023/02/17 01:49:34;;;;;;;69.47;31.42;;;;;;;4.74;59.45;100622.38;5217420;27;20066;-90
2023/02/17 01:52:07;;;;;;;62.80;29.92;;;;;;;4.47;59.42;100626.50;5201535;27;20061;-89
2023/02/17 01:54:57;;;;;;;71.03;28.38;;;;;;;4.79;59.45;100615.53;5217275;27;20076;-88
2023/02/17 01:57:23;;;;;;;66.62;28.52;;;;;;;4.85;59.44;100611.25;5224159;27;20085;-90
2023/02/17 01:59:49;;;;;;;74.95;30.60;;;;;;;4.81;59.45;100609.53;5199776;27;20117;-90
2023/02/17 02:02:14;;;;;;;64.62;29.02;;;;;;;4.74;59.44;100600.03;5199568;27;20109;-90
2023/02/17 02:04:41;;;;;;;61.10;28.25;;;;;;;4.40;59.42;100601.53;5199343;27;20442;-90
2023/02/17 02:07:10;;;;;;;60.88;27.50;;;;;;;4.37;59.42;100603.22;5217493;27;20616;-90
2023/02/17 02:09:38;;;;;;;61.05;27.13;;;;;;;4.45;59.43;100610.16;5199777;27;20081;-90
2023/02/17 02:12:35;;;;;;;60.25;26.15;;;;;;;4.81;59.45;100601.78;5217654;27;20065;-87
2023/02/17 02:15:10;;;;;;;53.80;24.85;;;;;;;4.93;59.45;100608.69;5219318;27;20083;-90
2023/02/17 02:17:57;;;;;;;64.28;26.12;;;;;;;4.70;59.44;100607.72;5199900;27;20415;-90
2023/02/17 02:21:02;;;;;;;51.75;23.58;;;;;;;4.77;59.44;100609.50;5235072;27;20740;-92
2023/02/17 02:23:42;;;;;;;49.65;23.10;;;;;;;4.74;59.44;100602.63;5217169;27;20066;-92
2023/02/17 02:26:29;;;;;;;49.05;23.75;;;;;;;4.61;59.43;100609.41;5218913;27;20810;-92
2023/02/17 02:29:36;;;;;;;60.72;26.52;;;;;;;4.45;59.43;100605.00;5234656;27;20454;-92
2023/02/17 02:32:33;;;;;;;56.58;24.65;;;;;;;4.26;59.41;100604.03;5195456;27;20121;-92
2023/02/17 02:35:17;;;;;;;66.85;28.20;;;;;;;4.34;59.41;100592.91;5217198;27;20088;-92
2023/02/17 02:37:47;;;;;;;68.50;28.40;;;;;;;4.49;59.44;100596.44;5201963;27;20457;-93
2023/02/17 02:40:13;;;;;;;;;;;;;;;4.51;59.43;100605.06;5218210;27;20067;-92
2023/02/17 02:42:38;;;;;;;64.47;25.27;;;;;;;4.47;59.42;100594.69;5235024;27;19985;-91
2023/02/17 02:45:06;;;;;;;62.92;27.20;;;;;;;4.48;59.43;100604.16;5199367;27;20341;-92
2023/02/17 02:47:52;;;;;;;60.75;26.33;;;;;;;4.45;59.42;100599.84;5217327;27;20053;-90
2023/02/17 02:50:43;;;;;;;56.40;24.70;;;;;;;4.53;59.43;100598.19;5216737;27;20043;-90
2023/02/17 02:53:27;;;;;;;60.25;26.95;;;;;;;4.49;59.44;100591.28;5218822;27;20049;-92
2023/02/17 02:55:59;;;;;;;53.03;23.75;;;;;;;4.40;59.42;100600.66;5234682;27;20113;-92
2023/02/17 02:58:53;;;;;;;52.15;24.80;;;;;;;4.32;59.41;100598.91;5234690;27;20499;-93
2023/02/17 03:01:27;;;;;;;50.88;23.58;;;;;;;4.67;59.43;100589.66;5226736;27;20053;-91
2023/02/17 03:04:05;;;;;;;55.35;23.60;;;;;;;4.33;59.41;100589.47;5234590;27;20061;-92
2023/02/17 03:06:38;;;;;;;56.13;24.52;;;;;;;4.64;59.44;100587.94;5235565;27;20055;-93
2023/02/17 03:09:17;;;;;;;57.38;23.70;;;;;;;4.44;59.43;100581.78;5216961;27;20467;-93
2023/02/17 03:11:42;;;;;;;56.35;25.37;;;;;;;4.40;59.42;100595.53;5199849;27;20042;-92
2023/02/17 03:14:09;;;;;;;53.95;25.50;;;;;;;4.50;59.44;100593.03;5215619;27;20074;-92
2023/02/17 03:16:36;;;;;;;56.08;26.02;;;;;;;4.59;59.44;100598.22;5198773;27;20109;-90
2023/02/17 03:19:01;;;;;;;55.22;24.35;;;;;;;4.57;59.44;100599.06;5217980;27;20058;-88
2023/02/17 03:21:32;;;;;;;60.35;25.58;;;;;;;4.55;59.43;100606.81;5200059;27;20049;-89
2023/02/17 03:23:57;;;;;;;53.08;24.02;;;;;;;4.53;59.43;100607.66;5218642;27;20053;-88
2023/02/17 03:26:23;;;;;;;56.60;25.30;;;;;;;4.57;59.42;100614.53;5217695;27;20076;-87
2023/02/17 03:28:48;;;;;;;56.08;24.95;;;;;;;4.48;59.42;100614.47;5200006;27;20384;-89
2023/02/17 03:31:14;;;;;;;56.60;25.02;;;;;;;4.41;59.42;100615.28;5217333;27;25390;-89
2023/02/17 03:33:39;;;;;;;55.65;25.42;;;;;;;4.38;59.42;100617.84;5200305;27;20120;-89
2023/02/17 03:36:05;;;;;;;56.65;25.70;;;;;;;4.53;59.43;100616.25;5200397;27;20105;-89
2023/02/17 03:38:31;;;;;;;56.67;26.12;;;;;;;4.65;59.44;100618.03;5217901;27;20068;-89
2023/02/17 03:40:56;;;;;;;53.15;25.65;;;;;;;4.65;59.44;100612.84;5200192;27;20451;-91
2023/02/17 03:43:21;;;;;;;59.65;25.67;;;;;;;4.49;59.42;100624.78;5235858;27;20054;-92
2023/02/17 03:45:47;;;;;;;55.67;25.10;;;;;;;4.57;59.44;100622.28;5199278;27;23341;-92
2023/02/17 03:48:12;;;;;;;63.17;26.77;;;;;;;4.60;59.43;100622.28;5199444;27;20975;-93
2023/02/17 03:50:38;;;;;;;63.22;24.75;;;;;;;4.65;59.44;100617.16;5200323;27;20058;-92
2023/02/17 03:53:04;;;;;;;55.50;24.73;;;;;;;4.63;59.44;100612.00;5200206;27;20501;-92
2023/02/17 03:55:29;;;;;;;57.38;25.62;;;;;;;4.53;59.43;100607.66;5200980;27;20058;-90
2023/02/17 03:57:54;;;;;;;54.65;26.02;;;;;;;4.95;59.46;100609.56;5200444;27;20068;-91
2023/02/17 04:00:20;;;;;;;53.85;26.45;;;;;;;4.88;59.45;100606.09;5201036;27;20062;-91
2023/02/17 04:02:46;;;;;;;57.30;27.00;;;;;;;4.53;59.43;100613.66;5218573;27;20065;-91
2023/02/17 04:05:11;;;;;;;59.47;27.05;;;;;;;4.63;59.43;100605.12;5200776;27;20407;-91
2023/02/17 04:07:37;;;;;;;52.60;24.92;;;;;;;4.66;59.44;100591.38;5200974;27;20499;-90
2023/02/17 04:10:02;;;;;;;59.28;26.58;;;;;;;4.50;59.44;100592.16;5200436;27;20094;-89
2023/02/17 04:12:28;;;;;;;61.67;27.90;;;;;;;4.53;59.43;100611.09;5200981;27;20094;-89
2023/02/17 04:14:53;;;;;;;57.17;25.67;;;;;;;4.78;59.44;100611.22;5200335;27;20109;-90
2023/02/17 04:17:18;;;;;;;55.08;27.02;;;;;;;4.73;59.45;100605.16;5200829;27;20077;-89
2023/02/17 04:19:44;;;;;;;65.62;28.52;;;;;;;4.76;59.45;100602.63;5200909;27;20141;-94
2023/02/17 04:22:09;;;;;;;61.30;28.80;;;;;;;4.90;59.45;100600.94;5201505;27;20125;-91
2023/02/17 04:24:36;;;;;;;58.60;27.42;;;;;;;4.63;59.43;100601.69;5200466;27;20147;-91
2023/02/17 04:27:02;;;;;;;63.63;29.15;;;;;;;4.81;59.45;100603.50;5218562;27;20064;-91
2023/02/17 04:29:27;;;;;;;71.47;29.98;;;;;;;4.66;59.44;100599.09;5200706;27;20033;-91
2023/02/17 04:31:53;;;;;;;65.43;30.50;;;;;;;4.83;59.45;100594.03;5200027;27;24638;-91
2023/02/17 04:34:18;;;;;;;69.82;30.83;;;;;;;4.82;59.45;100589.75;5235767;27;20105;-91
2023/02/17 04:36:44;;;;;;;72.65;30.88;;;;;;;4.83;59.44;100587.16;5200292;27;20070;-92
2023/02/17 04:39:09;;;;;;;65.85;29.87;;;;;;;4.87;59.45;100598.34;5199793;27;20334;-91
2023/02/17 04:41:34;;;;;;;62.90;27.42;;;;;;;4.97;59.46;100589.81;5200412;27;21830;-91
2023/02/17 04:44:00;;;;;;;61.97;27.70;;;;;;;4.93;59.46;100596.66;5200084;27;21221;-91
2023/02/17 04:46:25;;;;;;;59.75;26.65;;;;;;;5.11;59.46;100595.88;5200421;27;20432;-90
2023/02/17 04:48:51;;;;;;;56.17;26.80;;;;;;;5.06;59.46;100605.34;5200049;27;21693;-91
2023/02/17 04:51:16;;;;;;;60.58;27.52;;;;;;;4.90;59.45;100598.38;5200397;27;20398;-91
2023/02/17 04:53:41;;;;;;;54.63;24.52;;;;;;;4.96;59.46;100597.53;5217233;27;20408;-90
2023/02/17 04:56:07;;;;;;;57.60;25.95;;;;;;;5.15;59.46;100595.03;5200063;27;20097;-90
2023/02/17 04:58:32;;;;;;;60.28;25.15;;;;;;;5.17;59.47;100587.28;5199908;27;20070;-88
2023/02/17 05:00:58;;;;;;;54.83;24.02;;;;;;;5.22;59.46;100591.62;5218057;27;20054;-91
2023/02/17 05:03:23;;;;;;;63.05;27.50;;;;;;;5.15;59.46;100604.50;5200282;27;20063;-92
2023/02/17 05:05:49;;;;;;;54.13;25.00;;;;;;;5.18;59.47;100605.38;5199881;27;20094;-91
2023/02/17 05:08:14;;;;;;;59.05;25.92;;;;;;;5.24;59.47;100600.25;5200597;27;20114;-91
2023/02/17 05:10:40;;;;;;;61.60;26.92;;;;;;;5.24;59.47;100605.41;5200009;27;20113;-89
2023/02/17 05:13:05;;;;;;;62.75;27.13;;;;;;;5.43;59.48;100611.47;5199976;27;21622;-90
2023/02/17 05:15:31;;;;;;;55.97;26.23;;;;;;;5.15;59.46;100622.56;5200738;27;20157;-90
2023/02/17 05:17:56;;;;;;;65.75;32.03;;;;;;;5.17;59.47;100623.44;5200194;27;20106;-88
2023/02/17 05:20:22;;;;;;;66.97;32.20;;;;;;;5.29;59.47;100617.47;5199563;27;20065;-90
2023/02/17 05:22:47;;;;;;;61.17;27.87;;;;;;;5.33;59.48;100612.31;5199961;27;20080;-90
2023/02/17 05:25:12;;;;;;;58.55;28.55;;;;;;;5.48;59.48;100614.09;5199694;27;20117;-90
2023/02/17 05:27:38;;;;;;;51.97;25.02;;;;;;;5.28;59.47;100610.56;5199941;27;20066;-89
2023/02/17 05:30:04;;;;;;;68.05;29.30;;;;;;;5.49;59.49;100613.22;5199790;27;20077;-89
2023/02/17 05:32:29;;;;;;;56.58;25.02;;;;;;;5.29;59.47;100601.97;5217776;27;20061;-90
2023/02/17 05:34:55;;;;;;;51.47;23.75;;;;;;;5.15;59.46;100600.19;5199892;27;20058;-90
2023/02/17 05:37:20;;;;;;;55.88;24.37;;;;;;;5.31;59.47;100600.25;5200423;27;20101;-90
2023/02/17 05:39:46;;;;;;;55.60;25.30;;;;;;;5.41;59.48;100600.28;5199880;27;20109;-88
2023/02/17 05:42:11;;;;;;;56.22;25.92;;;;;;;5.47;59.49;100602.87;5200556;27;20110;-89
2023/02/17 05:44:37;;;;;;;56.40;26.15;;;;;;;5.67;59.49;100599.47;5217627;27;20085;-88
2023/02/17 05:47:02;;;;;;;56.33;26.30;;;;;;;5.52;59.48;100606.34;5217773;27;20062;-88
2023/02/17 05:49:27;;;;;;;52.13;25.77;;;;;;;5.53;59.49;100609.78;5217754;27;20061;-90
2023/02/17 05:51:53;;;;;;;49.50;25.73;;;;;;;5.42;59.48;100603.72;5200056;27;20072;-91
2023/02/17 05:54:18;;;;;;;56.40;28.40;;;;;;;5.55;59.49;100603.75;5217526;27;20065;-90
2023/02/17 05:56:44;;;;;;;59.80;27.95;;;;;;;5.61;59.49;100599.47;5200072;27;20054;-91
2023/02/17 05:59:09;;;;;;;57.38;27.35;;;;;;;5.61;59.48;100599.47;5199565;27;20071;-90
2023/02/17 06:01:34;;;;;;;56.33;24.92;;;;;;;5.60;59.49;100608.94;5200024;27;20125;-90
2023/02/17 06:04:00;;;;;;;60.63;26.35;;;;;;;5.65;59.49;100607.22;5199734;27;20054;-90
2023/02/17 06:06:25;;;;;;;52.35;23.62;;;;;;;5.68;59.49;100606.34;5199732;27;20077;-90
2023/02/17 06:08:51;;;;;;;54.30;23.75;;;;;;;5.53;59.49;100597.72;5200129;27;20475;-90
2023/02/17 06:11:16;;;;;;;54.58;26.33;;;;;;;5.72;59.49;100601.22;5200049;27;20585;-90
2023/02/17 06:13:42;;;;;;;54.17;23.65;;;;;;;6.01;59.52;100605.56;5199910;27;20062;-90
2023/02/17 06:16:07;;;;;;;53.92;23.52;;;;;;;5.85;59.51;100605.50;5199740;27;20066;-90
2023/02/17 06:18:32;;;;;;;53.75;24.75;;;;;;;5.90;59.52;100600.38;5199413;27;20901;-90
2023/02/17 06:20:58;;;;;;;51.15;24.98;;;;;;;5.86;59.51;100599.47;5200277;27;20069;-90
2023/02/17 06:23:24;;;;;;;59.00;28.12;;;;;;;5.75;59.50;100608.97;5200026;27;20057;-90
2023/02/17 06:25:49;;;;;;;70.00;30.33;;;;;;;5.89;59.51;100615.84;5217101;27;20042;-90
2023/02/17 06:28:15;;;;;;;103.70;44.30;;;;;;;5.90;59.51;100612.44;5199459;27;20085;-90
2023/02/17 06:30:40;;;;;;;157.15;67.20;;;;;;;5.95;59.51;100621.06;5198898;27;20051;-90
2023/02/17 06:33:05;;;;;;;76.78;34.92;;;;;;;5.84;59.51;100626.19;5216931;27;20099;-90
2023/02/17 06:35:31;;;;;;;73.78;36.95;;;;;;;6.10;59.52;100613.31;5199013;27;20510;-90
2023/02/17 06:37:56;;;;;;;55.17;25.83;;;;;;;6.05;59.51;100617.63;5199071;27;20121;-90
2023/02/17 06:40:22;;;;;;;54.45;25.02;;;;;;;6.22;59.53;100615.03;5217222;27;20443;-90
2023/02/17 06:42:47;;;;;;;55.80;24.65;;;;;;;6.17;59.53;100616.78;5216819;27;20053;-90
2023/02/17 06:45:13;;;;;;;54.65;24.95;;;;;;;6.26;59.53;100615.03;5199327;27;20380;-90
2023/02/17 06:47:38;;;;;;;54.28;25.50;;;;;;;6.34;59.53;100628.81;5199372;27;20114;-90
2023/02/17 06:50:04;;;;;;;52.90;24.48;;;;;;;6.57;59.54;100617.56;5198764;27;20826;-90
2023/02/17 06:52:29;;;;;;;48.55;24.33;;;;;;;6.52;59.55;100625.34;5217428;27;20336;-91
2023/02/17 06:54:55;;;;;;;57.42;26.42;;;;;;;6.62;59.55;100613.25;5200012;27;20130;-90
2023/02/17 06:57:20;;;;;;;51.00;24.40;;;;;;;6.39;59.53;100602.97;5199551;27;20336;-90
2023/02/17 06:59:46;;;;;;;52.28;23.83;;;;;;;6.49;59.54;100601.22;5200118;27;20076;-90
2023/02/17 07:02:12;;;;;;;48.63;23.40;;;;;;;6.46;59.54;100607.25;5200128;27;20102;-90
2023/02/17 07:04:38;;;;;;;54.55;24.73;;;;;;;6.66;59.55;100607.22;5200165;27;20121;-90
2023/02/17 07:07:03;;;;;;;56.25;25.75;;;;;;;6.71;59.55;100610.66;5218103;27;20058;-90
2023/02/17 07:09:29;;;;;;;48.40;23.55;;;;;;;6.83;59.56;100610.59;5199809;27;20077;-90
2023/02/17 07:11:54;;;;;;;50.50;24.27;;;;;;;6.72;59.56;100608.06;5217718;27;20093;-90
2023/02/17 07:14:20;;;;;;;50.00;25.52;;;;;;;6.81;59.56;100604.56;5217654;27;20106;-90
2023/02/17 07:16:45;;;;;;;55.05;24.90;;;;;;;6.81;59.56;100612.34;5199886;27;20109;-90
2023/02/17 07:19:10;;;;;;;48.47;22.98;;;;;;;7.05;59.57;100612.25;5235011;27;20499;-90
2023/02/17 07:21:36;;;;;;;48.75;23.10;;;;;;;7.00;59.56;100608.84;5199916;27;20106;-90
2023/02/17 07:24:01;;;;;;;51.08;22.17;;;;;;;7.11;59.58;100610.53;5199672;27;20122;-90
2023/02/17 07:26:27;;;;;;;50.60;23.02;;;;;;;7.14;59.57;100607.94;5199904;27;20094;-90
2023/02/17 07:28:52;;;;;;;50.12;23.12;;;;;;;7.17;59.57;100605.31;5200023;27;20078;-90
2023/02/17 07:31:17;;;;;;;54.08;24.17;;;;;;;7.34;59.59;100599.19;5235515;27;20058;-90
2023/02/17 07:33:44;;;;;;;51.00;24.92;;;;;;;7.43;59.60;100600.00;5217699;27;20047;-90
2023/02/17 07:36:12;;;;;;;55.45;24.73;;;;;;;7.56;59.60;100591.28;5200170;27;20058;-90
2023/02/17 07:38:37;;;;;;;48.78;23.23;;;;;;;7.73;59.61;100596.34;5217744;27;20128;-90
2023/02/17 07:41:15;;;;;;;45.70;22.27;;;;;;;7.73;59.61;100599.81;5217769;27;20054;-90
2023/02/17 07:43:41;;;;;;;49.38;21.85;;;;;;;7.96;59.62;100597.06;5219200;27;20667;-90
2023/02/17 07:46:06;;;;;;;42.92;21.17;;;;;;;7.98;59.62;100587.53;5217600;27;20050;-90
2023/02/17 07:48:32;;;;;;;41.17;20.60;;;;;;;8.07;59.62;100581.44;5199908;27;20166;-91
2023/02/17 07:51:06;;;;;;;44.40;20.98;;;;;;;8.22;59.63;100591.66;5199547;27;20079;-90
2023/02/17 07:53:31;;;;;;;45.08;22.48;;;;;;;8.43;59.64;100585.44;5217978;27;20077;-89
2023/02/17 07:55:57;;;;;;;50.85;21.48;;;;;;;8.59;59.66;100576.63;5200074;27;20102;-90
2023/02/17 07:58:22;;;;;;;42.50;20.17;;;;;;;8.89;59.68;100568.47;5217571;27;20117;-89
2023/02/17 08:00:48;;;;;;;43.50;21.15;;;;;;;8.99;59.68;100574.44;5199809;27;20092;-89
2023/02/17 08:03:13;;;;;;;53.05;22.10;;;;;;;9.17;59.69;100576.78;5217313;27;20070;-89
2023/02/17 08:05:40;;;;;;;43.00;20.67;;;;;;;9.26;59.70;100573.22;5216750;27;23332;-89
2023/02/17 08:13:34;;;;;;;38.10;19.48;;;;;;;10.03;59.74;100571.19;5220543;27;20718;-89
2023/02/17 08:15:59;;;;;;;40.78;19.85;;;;;;;10.23;59.74;100575.22;5216846;27;20121;-89
2023/02/17 08:18:24;;;;;;;40.00;19.77;;;;;;;10.44;59.76;100577.44;5199822;27;20109;-89
2023/02/17 08:20:50;;;;;;;42.53;19.67;;;;;;;10.73;59.77;100569.09;5199268;27;21854;-89
2023/02/17 08:23:15;;;;;;;39.13;19.90;;;;;;;10.68;59.77;100574.38;5199720;27;20054;-89
2023/02/17 08:25:41;;;;;;;40.00;19.05;;;;;;;10.82;59.78;100558.47;5217062;27;20054;-89
2023/02/17 08:28:06;;;;;;;38.38;18.60;;;;;;;11.02;59.79;100571.09;5199414;27;20058;-89
2023/02/17 08:30:34;;;;;;;37.63;18.55;;;;;;;11.21;59.80;100562.00;5182321;27;20062;-89
2023/02/17 08:32:59;;;;;;;34.45;17.58;;;;;;;11.27;59.80;100566.22;5217519;27;20025;-89
2023/02/17 08:35:25;;;;;;;38.05;17.73;;;;;;;11.32;59.81;100562.59;5199662;27;20399;-88
2023/02/17 08:37:50;;;;;;;37.67;18.62;;;;;;;11.44;59.81;100561.50;5217191;27;20105;-88
2023/02/17 08:40:16;;;;;;;35.67;18.05;;;;;;;11.50;59.81;100571.78;5217326;27;20102;-89
2023/02/17 08:42:42;;;;;;;38.47;19.08;;;;;;;11.45;59.81;100572.78;5235126;27;20074;-89
2023/02/17 08:45:08;;;;;;;32.95;17.15;;;;;;;11.53;59.82;100568.25;5234987;27;20124;-89
2023/02/17 08:47:34;;;;;;;38.92;18.08;;;;;;;11.42;59.81;100575.47;5217477;27;20066;-89
2023/02/17 08:49:59;;;;;;;39.50;18.27;;;;;;;11.46;59.82;100571.88;5217283;27;20108;-89
2023/02/17 08:52:25;;;;;;;39.15;18.20;;;;;;;11.43;59.81;100577.16;5199368;27;20045;-89
2023/02/17 08:54:51;;;;;;;34.85;16.85;;;;;;;11.52;59.82;100566.53;5199201;27;22662;-90
2023/02/17 08:57:17;;;;;;;29.87;15.23;;;;;;;11.63;59.83;100561.94;5199755;27;20058;-89
2023/02/17 08:59:46;;;;;;;27.20;13.88;;;;;;;11.95;59.84;100562.03;5199855;27;20117;-89
2023/02/17 09:02:12;;;;;;;31.25;15.43;;;;;;;11.98;59.84;100563.72;5200849;27;20068;-89
2023/02/17 09:04:37;;;;;;;27.87;14.93;;;;;;;11.84;59.84;100568.44;5217265;27;20089;-89
2023/02/17 09:07:03;;;;;;;25.15;12.88;;;;;;;12.01;59.84;100578.44;5199701;27;20062;-89
2023/02/17 09:09:28;;;;;;;29.08;15.43;;;;;;;11.94;59.84;100570.75;5199480;27;20055;-89
2023/02/17 09:11:55;;;;;;;35.35;15.15;;;;;;;12.03;59.84;100561.00;5217327;27;20123;-89
2023/02/17 09:14:24;;;;;;;32.70;15.65;;;;;;;12.16;59.86;100565.87;5199332;27;20030;-89
2023/02/17 09:16:50;;;;;;;30.60;13.85;;;;;;;12.38;59.87;100563.56;5200074;27;20133;-89
2023/02/17 09:19:16;;;;;;;28.50;14.65;;;;;;;12.44;59.87;100563.41;5199721;27;20050;-89
2023/02/17 09:21:41;;;;;;;33.35;15.85;;;;;;;12.42;59.87;100553.91;5199518;27;20080;-89
2023/02/17 09:24:07;;;;;;;35.25;15.13;;;;;;;12.59;59.88;100549.06;5216817;27;20058;-89
2023/02/17 09:26:33;;;;;;;30.60;14.85;;;;;;;12.61;59.88;100552.50;5199254;27;20058;-89
2023/02/17 09:29:00;;;;;;;27.90;13.62;;;;;;;12.82;59.89;100564.12;5217442;27;20049;-88
2023/02/17 09:31:26;;;;;;;30.98;14.68;;;;;;;12.71;59.88;100546.09;5200054;27;20124;-88
2023/02/17 09:33:51;;;;;;;29.55;15.13;;;;;;;12.87;59.89;100552.63;5199378;27;20088;-88
2023/02/17 09:36:19;;;;;;;28.27;14.57;;;;;;;12.68;59.89;100546.19;5199348;27;20116;-89
2023/02/17 09:38:44;;;;;;;29.77;13.98;;;;;;;13.00;59.90;100565.31;5217375;27;20769;-89
2023/02/17 09:42:00;;;;;;;31.60;15.55;;;;;;;13.19;59.90;100556.06;5199477;27;20062;-89
2023/02/17 09:46:11;;;;;;;26.50;13.80;;;;;;;14.03;59.97;100551.66;4523332;31;143207;-90
2023/02/17 09:48:36;;;;;;;35.50;15.48;;;;;;;14.03;59.97;100551.66;4500415;31;20103;-90
2023/02/17 09:51:14;;;;;;;31.02;14.52;;;;;;;13.51;59.93;100547.28;4499780;31;20105;-90
2023/02/17 09:53:42;;;;;;;28.20;14.93;;;;;;;13.40;59.92;100544.97;4487800;31;20120;-89
2023/02/17 09:56:10;;;;;;;31.08;15.40;;;;;;;13.15;59.91;100539.59;4499951;31;20151;-90
2023/02/17 09:58:39;;;;;;;29.67;15.18;;;;;;;12.85;59.89;100535.28;4513354;31;20097;-89
2023/02/17 10:01:11;;;;;;;34.03;18.00;;;;;;;13.04;59.89;100540.84;4514041;31;20126;-90
2023/02/17 10:03:45;;;;;;;29.67;16.30;;;;;;;13.36;59.92;100538.13;4487116;31;20096;-89
2023/02/17 10:06:30;;;;;;;34.70;15.43;;;;;;;13.29;59.91;100538.37;4500192;31;20100;-90
2023/02/17 10:09:00;;;;;;;31.08;15.85;;;;;;;13.30;59.92;100524.41;4513193;31;20765;-90
2023/02/17 10:11:38;;;;;;;34.58;15.15;;;;;;;13.21;59.91;100534.22;4513189;31;20520;-90
2023/02/17 10:14:36;;;;;;;35.53;16.55;;;;;;;13.39;59.92;100537.19;4512885;31;20088;-90
2023/02/17 10:17:05;;;;;;;34.13;16.60;;;;;;;13.26;59.92;100518.41;4514472;31;20112;-90
2023/02/17 10:20:04;;;;;;;34.75;16.62;;;;;;;13.40;59.92;100510.12;4512934;31;20092;-89
2023/02/17 10:22:30;;;;;;;34.90;17.00;;;;;;;13.54;59.93;100523.62;4507591;31;20081;-89
2023/02/17 10:24:55;;;;;;;34.35;16.90;;;;;;;13.45;59.93;100514.28;4499551;31;20075;-89
2023/02/17 10:27:36;;;;;;;37.28;18.87;;;;;;;13.68;59.94;100510.94;4499389;31;20361;-89
2023/02/17 10:30:18;;;;;;;33.28;17.27;;;;;;;13.78;59.94;100501.91;4501359;31;20100;-89
2023/02/17 10:33:00;;;;;;;33.92;16.67;;;;;;;13.89;59.95;100505.91;4487260;31;20091;-90
2023/02/17 10:35:52;;;;;;;32.70;16.08;;;;;;;14.01;59.95;100498.50;4514139;31;20094;-90
2023/02/17 10:38:36;;;;;;;32.13;15.85;;;;;;;14.28;59.98;100494.09;4509350;31;20153;-89
2023/02/17 10:41:02;;;;;;;29.98;15.30;;;;;;;14.33;59.98;100496.53;4514192;31;20497;-89
2023/02/17 10:43:29;;;;;;;27.90;14.00;;;;;;;14.41;59.98;100495.34;4499448;31;20147;-89
2023/02/17 10:45:54;;;;;;;26.40;14.35;;;;;;;14.54;59.98;100487.09;4499202;31;20539;-89
2023/02/17 10:48:31;;;;;;;28.02;13.45;;;;;;;14.73;60.00;100475.88;4499761;31;20118;-90
2023/02/17 10:50:58;;;;;;;28.50;14.52;;;;;;;15.03;60.01;100473.84;4513006;31;20111;-90
2023/02/17 10:53:27;;;;;;;30.62;17.33;;;;;;;15.20;60.02;100462.69;4512646;31;20156;-90
2023/02/17 10:56:09;;;;;;;39.78;20.30;;;;;;;15.38;60.03;100470.72;4482232;31;20463;-89
2023/02/17 10:58:44;;;;;;;38.10;20.67;;;;;;;15.49;60.04;100460.66;4504184;31;20172;-90
2023/02/17 11:01:10;;;;;;;37.55;18.95;;;;;;;15.58;60.04;100455.03;4488694;31;20134;-90
2023/02/17 11:03:37;;;;;;;33.80;17.05;;;;;;;15.46;60.03;100452.94;4489121;31;20096;-90
2023/02/17 11:06:22;;;;;;;36.05;17.83;;;;;;;15.60;60.04;100458.47;4488894;31;20117;-90
2023/02/17 11:08:53;;;;;;;34.25;17.17;;;;;;;15.75;60.05;100451.75;4501740;31;20169;-90
2023/02/17 11:11:29;;;;;;;30.08;15.95;;;;;;;15.79;60.06;100453.31;4476247;31;20112;-90
2023/02/17 11:14:06;;;;;;;27.75;14.50;;;;;;;15.80;60.06;100445.38;4489446;31;20119;-90
2023/02/17 11:16:37;;;;;;;33.53;16.77;;;;;;;15.88;60.06;100443.31;4501772;31;20452;-89
2023/02/17 11:19:07;;;;;;;29.00;15.93;;;;;;;15.79;60.06;100440.19;4489109;31;20123;-90
2023/02/17 11:21:32;;;;;;;31.93;17.17;;;;;;;15.85;60.07;100432.94;4502025;31;20385;-89
2023/02/17 11:24:03;;;;;;;33.33;16.75;;;;;;;15.83;60.06;100431.25;4501842;31;20148;-90
2023/02/17 11:26:30;;;;;;;31.55;16.35;;;;;;;15.69;60.05;100428.38;4476577;31;20165;-89
2023/02/17 11:29:26;;;;;;;32.50;16.60;;;;;;;15.95;60.07;100418.47;4489546;31;20172;-89